createdAt,value
2024-01-20T00:00:15.773Z,22.27
2024-01-20T00:02:43.587Z,21.40
2024-01-20T00:05:12.322Z,20.75
2024-01-20T00:07:39.892Z,21.90
2024-01-20T00:10:14.134Z,22.27
2024-01-20T00:12:42.885Z,20.95
2024-01-20T00:15:11.134Z,21.63
2024-01-20T00:17:39.595Z,20.80
2024-01-20T00:20:07.698Z,21.83
2024-01-20T00:22:34.625Z,21.58
2024-01-20T00:25:03.756Z,20.83
2024-01-20T00:27:31.919Z,20.77
2024-01-20T00:29:59.215Z,21.15
2024-01-20T00:32:25.975Z,20.83
2024-01-20T00:35:00.592Z,21.27
2024-01-20T00:37:38.422Z,21.65
2024-01-20T00:40:06.482Z,21.75
2024-01-20T00:42:33.320Z,20.02
2024-01-20T00:45:00.009Z,21.80
2024-01-20T00:47:26.644Z,21.15
2024-01-20T00:49:53.316Z,20.67
2024-01-20T00:52:20.001Z,20.73
2024-01-20T00:54:46.614Z,20.65
2024-01-20T00:57:13.251Z,20.93
2024-01-20T00:59:39.965Z,20.42
2024-01-20T01:02:06.580Z,20.45
2024-01-20T01:04:33.274Z,19.75
2024-01-20T01:06:59.893Z,20.00
2024-01-20T01:09:26.452Z,22.03
2024-01-20T01:11:53.037Z,20.83
2024-01-20T01:14:20.724Z,19.05
2024-01-20T01:16:47.761Z,20.27
2024-01-20T01:19:14.446Z,20.08
2024-01-20T01:21:41.046Z,19.80
2024-01-20T01:24:07.755Z,21.35
2024-01-20T01:26:34.541Z,19.38
2024-01-20T01:29:01.617Z,20.55
2024-01-20T01:31:28.248Z,19.90
2024-01-20T01:33:54.962Z,19.23
2024-01-20T01:36:21.745Z,19.05
2024-01-20T01:38:48.352Z,19.95
2024-01-20T01:41:15.083Z,19.52
2024-01-20T01:43:42.051Z,19.08
2024-01-20T01:46:09.523Z,17.83
2024-01-20T01:48:36.315Z,19.13
2024-01-20T01:51:06.635Z,18.63
2024-01-20T01:53:34.174Z,19.27
2024-01-20T01:56:02.131Z,19.15
2024-01-20T01:58:29.422Z,17.20
2024-01-20T05:04:18.514Z,16.15
2024-01-20T05:06:46.860Z,16.63
2024-01-20T05:09:14.850Z,16.98
2024-01-20T05:11:41.680Z,17.48
2024-01-20T05:14:12.109Z,17.40
2024-01-20T05:16:38.664Z,17.25
2024-01-20T05:19:05.468Z,17.73
2024-01-20T05:21:32.282Z,17.13
2024-01-20T05:23:58.936Z,19.00
2024-01-20T05:26:25.593Z,18.17
2024-01-20T05:28:52.182Z,17.17
2024-01-20T05:31:18.735Z,16.77
2024-01-20T05:33:45.594Z,16.13
2024-01-20T05:36:15.673Z,16.40
2024-01-20T05:38:42.533Z,17.27
2024-01-20T05:41:10.124Z,18.73
2024-01-20T05:43:37.680Z,16.40
2024-01-20T05:46:08.092Z,16.20
2024-01-20T05:48:36.364Z,16.27
2024-01-20T05:51:03.668Z,16.27
2024-01-20T05:53:30.575Z,15.90
2024-01-20T05:55:57.258Z,15.43
2024-01-20T05:58:23.833Z,15.27
2024-01-20T06:00:50.805Z,16.05
2024-01-20T06:03:17.522Z,15.23
2024-01-20T06:05:44.541Z,14.88
2024-01-20T06:08:11.864Z,14.68
2024-01-20T06:10:38.754Z,15.23
2024-01-20T06:13:05.370Z,15.48
2024-01-20T06:15:32.083Z,14.53
2024-01-20T06:17:58.796Z,14.77
2024-01-20T06:20:25.490Z,13.38
2024-01-20T06:22:52.085Z,14.25
2024-01-20T06:25:19.573Z,14.20
2024-01-20T06:27:46.160Z,14.47
2024-01-20T06:30:34.148Z,14.43
2024-01-20T06:33:01.330Z,14.65
2024-01-20T06:35:28.034Z,14.30
2024-01-20T06:37:54.619Z,13.63
2024-01-20T06:40:21.308Z,14.10
2024-01-20T06:42:48.017Z,13.85
2024-01-20T06:45:14.779Z,14.77
2024-01-20T06:47:41.576Z,13.98
2024-01-20T06:50:09.645Z,13.32
2024-01-20T06:52:36.289Z,14.43
2024-01-20T06:55:03.261Z,13.10
2024-01-20T06:57:31.041Z,16.42
2024-01-20T06:59:58.135Z,14.15
2024-01-20T07:02:24.813Z,14.95
2024-01-20T07:04:51.449Z,13.50
2024-01-20T07:07:18.423Z,13.57
2024-01-20T07:09:45.049Z,14.57
2024-01-20T07:12:11.857Z,13.40
2024-01-20T07:14:38.566Z,14.30
2024-01-20T07:17:06.483Z,14.00
2024-01-20T07:19:33.218Z,13.45
2024-01-20T07:21:59.893Z,13.48
2024-01-20T07:24:28.977Z,14.32
2024-01-20T07:26:56.098Z,13.13
2024-01-20T07:29:23.742Z,14.77
2024-01-20T07:31:51.463Z,13.85
2024-01-20T07:34:18.621Z,14.40
2024-01-20T07:36:45.444Z,14.27
2024-01-20T07:39:12.450Z,13.93
2024-01-20T07:41:39.118Z,14.07
2024-01-20T07:44:05.731Z,14.02
2024-01-20T07:46:32.325Z,14.63
2024-01-20T07:48:58.944Z,14.23
2024-01-20T07:51:25.655Z,13.80
2024-01-20T07:53:52.276Z,15.00
2024-01-20T07:56:18.924Z,14.45
2024-01-20T07:58:46.457Z,14.82
2024-01-20T08:01:13.070Z,14.90
2024-01-20T08:03:39.764Z,14.38
2024-01-20T08:06:06.584Z,15.33
2024-01-20T08:08:33.296Z,15.85
2024-01-20T08:10:59.833Z,14.90
2024-01-20T08:13:26.371Z,14.43
2024-01-20T08:15:52.967Z,13.63
2024-01-20T08:18:22.903Z,13.83
2024-01-20T08:20:49.558Z,15.20
2024-01-20T08:23:16.133Z,14.48
2024-01-20T08:25:42.782Z,14.52
2024-01-20T08:28:09.851Z,15.68
2024-01-20T08:30:36.595Z,14.83
2024-01-20T08:33:05.317Z,15.10
2024-01-20T08:35:32.845Z,15.95
2024-01-20T08:37:59.601Z,15.02
2024-01-20T08:40:26.346Z,15.27
2024-01-20T08:42:52.949Z,16.00
2024-01-20T08:45:19.772Z,15.57
2024-01-20T08:47:46.479Z,16.00
2024-01-20T08:50:13.220Z,15.90
2024-01-20T08:52:40.855Z,16.35
2024-01-20T08:55:08.296Z,15.53
2024-01-20T08:57:35.132Z,17.20
2024-01-20T09:00:02.194Z,15.73
2024-01-20T09:02:36.764Z,16.23
2024-01-20T09:05:03.969Z,16.45
2024-01-20T09:07:30.546Z,15.57
2024-01-20T09:09:59.145Z,16.95
2024-01-20T09:12:26.484Z,15.05
2024-01-20T09:14:53.268Z,15.23
2024-01-20T09:17:19.896Z,15.35
2024-01-20T09:19:47.517Z,14.83
2024-01-20T09:22:14.227Z,15.57
2024-01-20T09:24:40.830Z,14.80
2024-01-20T09:27:07.545Z,13.85
2024-01-20T09:29:34.291Z,14.90
2024-01-20T09:32:00.898Z,15.07
2024-01-20T09:34:29.448Z,15.20
2024-01-20T09:36:56.101Z,15.25
2024-01-20T09:39:23.052Z,14.18
2024-01-20T09:41:50.038Z,14.10
2024-01-20T09:44:17.768Z,14.37
2024-01-20T09:46:45.268Z,14.13
2024-01-20T09:49:12.077Z,14.55
2024-01-20T09:51:52.621Z,14.45
2024-01-20T09:54:21.701Z,14.43
2024-01-20T09:56:48.804Z,14.90
2024-01-20T09:59:16.398Z,14.82
2024-01-20T10:01:45.206Z,13.10
2024-01-20T10:04:18.005Z,14.63
2024-01-20T10:06:45.926Z,14.25
2024-01-20T10:09:12.687Z,13.17
2024-01-20T10:11:39.302Z,14.15
2024-01-20T10:14:06.210Z,14.32
2024-01-20T10:16:42.442Z,13.15
2024-01-20T10:19:09.451Z,14.25
2024-01-20T10:21:42.679Z,13.37
2024-01-20T10:24:09.967Z,14.27
2024-01-20T10:26:43.828Z,13.77
2024-01-20T10:29:13.549Z,11.77
2024-01-20T10:31:40.183Z,13.80
2024-01-20T10:34:07.095Z,12.43
2024-01-20T10:36:34.412Z,13.55
2024-01-20T10:39:06.297Z,13.25
2024-01-20T10:41:38.089Z,13.55
2024-01-20T10:44:08.771Z,13.85
2024-01-20T10:46:40.523Z,13.00
2024-01-20T10:49:15.580Z,13.18
2024-01-20T10:51:43.753Z,14.13
2024-01-20T10:54:11.554Z,13.15
2024-01-20T10:56:38.850Z,13.52
2024-01-20T10:59:18.091Z,13.70
2024-01-20T11:01:46.562Z,12.88
2024-01-20T11:04:20.895Z,12.25
2024-01-20T11:06:49.056Z,12.05
2024-01-20T11:09:23.195Z,12.40
2024-01-20T11:12:01.173Z,12.77
2024-01-20T11:14:32.108Z,12.10
2024-01-20T11:17:09.097Z,11.43
2024-01-20T11:19:35.739Z,11.82
2024-01-20T11:22:02.353Z,12.18
2024-01-20T11:24:43.607Z,11.50
2024-01-20T11:27:10.508Z,11.68
2024-01-20T11:29:37.146Z,11.70
2024-01-20T11:32:04.439Z,11.32
2024-01-20T11:34:31.153Z,10.43
2024-01-20T11:36:59.997Z,10.97
2024-01-20T11:39:26.667Z,11.63
2024-01-20T11:42:03.885Z,11.98
2024-01-20T11:44:33.982Z,11.88
2024-01-20T11:47:00.813Z,11.02
2024-01-20T11:49:28.013Z,10.87
2024-01-20T11:51:55.174Z,10.55
2024-01-20T11:54:22.041Z,10.60
2024-01-20T11:56:57.455Z,11.25
2024-01-20T11:59:24.084Z,10.80
2024-01-20T12:01:50.826Z,10.37
2024-01-20T12:04:17.733Z,10.43
2024-01-20T12:06:44.493Z,10.05
2024-01-20T12:09:12.610Z,11.07
2024-01-20T12:11:40.901Z,11.63
2024-01-20T12:14:09.325Z,11.00
2024-01-20T12:16:36.557Z,11.65
2024-01-20T12:19:03.351Z,10.95
2024-01-20T12:21:30.194Z,11.90
2024-01-20T12:23:57.476Z,12.05
2024-01-20T12:26:24.612Z,11.40
2024-01-20T12:28:54.324Z,11.27
2024-01-20T12:31:23.041Z,11.48
2024-01-20T12:33:50.731Z,12.32
2024-01-20T12:36:17.740Z,11.52
2024-01-20T12:38:44.530Z,11.93
2024-01-20T12:41:11.921Z,12.05
2024-01-20T12:43:38.711Z,11.27
2024-01-20T12:46:05.330Z,11.18
2024-01-20T12:48:32.094Z,11.23
2024-01-20T12:51:00.800Z,10.93
2024-01-20T12:53:28.028Z,10.90
2024-01-20T12:55:54.711Z,10.55
2024-01-20T12:58:21.353Z,10.93
2024-01-20T13:00:48.156Z,10.18
2024-01-20T13:03:14.845Z,11.17
2024-01-20T13:05:42.754Z,10.30
2024-01-20T13:08:09.403Z,10.27
2024-01-20T13:10:38.780Z,10.40
2024-01-20T13:13:05.359Z,10.25
2024-01-20T13:15:32.097Z,10.47
2024-01-20T13:17:58.877Z,11.38
2024-01-20T13:20:25.520Z,11.32
2024-01-20T13:22:52.182Z,11.02
2024-01-20T13:25:19.893Z,11.20
2024-01-20T13:27:46.746Z,31.77
2024-01-20T13:30:13.848Z,11.05
2024-01-20T13:32:40.890Z,10.32
2024-01-20T13:35:08.470Z,11.02
2024-01-20T13:37:35.251Z,12.23
2024-01-20T13:40:02.622Z,11.80
2024-01-20T13:42:29.239Z,9.88
2024-01-20T13:44:55.845Z,9.57
2024-01-20T13:47:22.455Z,9.60
2024-01-20T13:49:49.316Z,11.10
2024-01-20T13:52:16.067Z,10.53
2024-01-20T13:54:43.559Z,16.40
2024-01-20T13:57:11.182Z,15.45
2024-01-20T13:59:37.836Z,13.65
2024-01-20T14:02:04.676Z,12.02
2024-01-20T14:04:31.363Z,10.47
2024-01-20T14:07:03.265Z,10.45
2024-01-20T14:09:32.097Z,10.45
2024-01-20T14:11:58.789Z,10.07
2024-01-20T14:14:25.469Z,9.75
2024-01-20T14:16:59.496Z,8.10
2024-01-20T14:19:28.185Z,7.82
2024-01-20T14:21:55.026Z,9.50
2024-01-20T14:24:21.856Z,8.27
2024-01-20T14:26:49.033Z,9.68
2024-01-20T14:29:16.156Z,11.10
2024-01-20T14:31:50.361Z,10.07
2024-01-20T14:34:17.835Z,8.50
2024-01-20T14:36:46.963Z,8.70
2024-01-20T14:39:14.922Z,8.30
2024-01-20T14:41:41.633Z,7.73
2024-01-20T14:44:08.338Z,8.05
2024-01-20T14:46:34.948Z,8.07
2024-01-20T14:49:11.458Z,8.82
2024-01-20T14:51:38.370Z,8.45
2024-01-20T14:54:05.838Z,8.50
2024-01-20T14:56:36.847Z,8.95
2024-01-20T14:59:04.612Z,9.85
2024-01-20T15:01:32.402Z,10.48
2024-01-20T15:03:59.126Z,9.63
2024-01-20T15:06:27.786Z,8.27
2024-01-20T15:08:54.721Z,8.57
2024-01-20T15:11:21.352Z,8.50
2024-01-20T15:13:48.097Z,8.20
2024-01-20T15:16:14.836Z,8.63
2024-01-20T15:18:41.513Z,7.67
2024-01-20T15:21:08.539Z,8.00
2024-01-20T15:23:35.626Z,8.20
2024-01-20T15:26:02.265Z,8.10
2024-01-20T15:28:28.926Z,8.70
2024-01-20T15:30:55.547Z,9.37
2024-01-20T15:33:22.855Z,8.43
2024-01-20T15:35:49.635Z,9.25
2024-01-20T15:38:16.871Z,9.07
2024-01-20T15:40:44.247Z,8.70
2024-01-20T15:43:10.954Z,9.40
2024-01-20T15:45:38.575Z,8.45
2024-01-20T15:48:06.075Z,9.02
2024-01-20T15:50:32.833Z,8.57
2024-01-20T15:52:59.477Z,10.23
2024-01-20T15:55:26.025Z,10.70
2024-01-20T15:57:52.677Z,9.52
2024-01-20T16:00:19.310Z,13.80
2024-01-20T16:02:46.497Z,11.63
2024-01-20T16:05:13.395Z,15.07
2024-01-20T16:07:40.057Z,15.20
2024-01-20T16:10:07.165Z,13.25
2024-01-20T16:12:33.841Z,13.30
2024-01-20T16:15:00.760Z,12.23
2024-01-20T16:17:27.742Z,10.88
2024-01-20T16:19:54.567Z,11.10
2024-01-20T16:22:21.159Z,10.75
2024-01-20T16:24:47.846Z,11.07
2024-01-20T16:27:14.763Z,10.60
2024-01-20T16:29:41.365Z,10.50
2024-01-20T16:32:10.657Z,10.70
2024-01-20T16:34:38.121Z,11.25
2024-01-20T16:37:05.308Z,9.82
2024-01-20T16:39:32.029Z,11.70
2024-01-20T16:41:58.892Z,10.27
2024-01-20T16:44:27.079Z,10.53
2024-01-20T16:46:54.236Z,11.57
2024-01-20T16:49:22.196Z,11.55
2024-01-20T16:51:49.227Z,11.25
2024-01-20T16:54:16.086Z,12.93
2024-01-20T16:56:42.991Z,15.30
2024-01-20T16:59:10.564Z,12.05
2024-01-20T17:01:38.208Z,10.95
2024-01-20T17:04:05.660Z,13.55
2024-01-20T17:06:34.200Z,12.88
2024-01-20T17:09:02.001Z,11.13
2024-01-20T17:11:28.850Z,12.32
2024-01-20T17:13:55.695Z,14.38
2024-01-20T17:16:22.480Z,12.18
2024-01-20T17:18:49.282Z,12.80
2024-01-20T17:21:17.544Z,11.93
2024-01-20T17:23:44.895Z,11.43
2024-01-20T17:26:12.084Z,13.43
2024-01-20T17:28:38.904Z,12.85
2024-01-20T17:31:05.837Z,10.80
2024-01-20T17:33:32.836Z,10.63
2024-01-20T17:35:59.490Z,11.13
2024-01-20T17:38:26.219Z,11.45
2024-01-20T17:40:52.903Z,13.88
2024-01-20T17:43:19.491Z,12.90
2024-01-20T17:45:51.280Z,11.53
2024-01-20T17:48:18.161Z,10.40
2024-01-20T17:50:44.884Z,11.32
2024-01-20T17:53:13.307Z,9.93
2024-01-20T17:55:41.122Z,10.98
2024-01-20T17:58:10.162Z,12.17
2024-01-20T18:00:37.934Z,11.52
2024-01-20T18:03:05.832Z,14.13
2024-01-20T18:05:32.585Z,12.45
2024-01-20T18:07:59.312Z,11.45
2024-01-20T18:10:26.108Z,11.30
2024-01-20T18:12:52.761Z,12.13
2024-01-20T18:15:19.519Z,12.98
2024-01-20T18:17:46.725Z,12.07
2024-01-20T18:20:14.100Z,12.73
2024-01-20T18:22:40.875Z,13.40
2024-01-20T18:25:08.248Z,12.25
2024-01-20T18:27:35.041Z,17.17
2024-01-20T18:30:01.901Z,13.90
2024-01-20T18:32:29.071Z,15.52
2024-01-20T18:34:55.788Z,20.90
2024-01-20T18:37:22.287Z,16.65
2024-01-20T18:39:49.201Z,17.08
2024-01-20T18:42:19.057Z,14.75
2024-01-20T18:44:45.739Z,15.13
2024-01-20T18:47:12.608Z,17.27
2024-01-20T18:49:39.458Z,13.32
2024-01-20T18:52:06.612Z,10.45
2024-01-20T18:54:33.338Z,11.63
2024-01-20T18:56:59.983Z,12.52
2024-01-20T18:59:26.600Z,13.30
2024-01-20T19:01:54.383Z,10.75
2024-01-20T19:04:21.755Z,11.73
2024-01-20T19:06:48.851Z,10.98
2024-01-20T19:09:15.492Z,11.82
2024-01-20T19:11:42.191Z,12.00
2024-01-20T19:14:08.814Z,13.82
2024-01-20T19:16:35.433Z,12.57
2024-01-20T19:19:04.507Z,13.05
2024-01-20T19:21:31.380Z,13.85
2024-01-20T19:23:58.459Z,13.57
2024-01-20T19:26:25.083Z,13.20
2024-01-20T19:28:51.948Z,12.93
2024-01-20T19:31:18.587Z,14.15
2024-01-20T19:33:48.867Z,16.60
2024-01-20T19:36:15.593Z,14.17
2024-01-20T19:38:42.381Z,13.27
2024-01-20T19:41:09.427Z,15.00
2024-01-20T19:43:36.439Z,14.93
2024-01-20T19:46:03.796Z,13.98
2024-01-20T19:48:33.003Z,14.07
2024-01-20T19:50:59.869Z,15.27
2024-01-20T19:53:26.804Z,13.52
2024-01-20T19:55:53.692Z,13.75
2024-01-20T19:58:20.367Z,13.50
2024-01-20T20:00:49.397Z,13.60
2024-01-20T20:03:16.477Z,12.70
2024-01-20T20:05:46.556Z,13.52
2024-01-20T20:08:14.044Z,14.05
2024-01-20T20:10:40.748Z,13.85
2024-01-20T20:13:07.326Z,13.67
2024-01-20T20:15:33.948Z,13.50
2024-01-20T20:18:00.729Z,12.75
2024-01-20T20:20:27.509Z,13.27
2024-01-20T20:22:57.030Z,12.75
2024-01-20T20:25:23.604Z,13.60
2024-01-20T20:27:50.253Z,13.15
2024-01-20T20:30:17.334Z,13.73
2024-01-20T20:32:45.265Z,12.95
2024-01-20T20:35:13.300Z,13.70
2024-01-20T20:37:40.534Z,13.37
2024-01-20T20:40:09.492Z,13.80
2024-01-20T20:42:36.141Z,14.80
2024-01-20T20:45:02.828Z,13.35
2024-01-20T20:47:29.496Z,13.63
2024-01-20T20:49:56.934Z,13.53
2024-01-20T20:52:23.698Z,14.70
2024-01-20T20:54:50.452Z,13.80
2024-01-20T20:57:19.196Z,13.05
2024-01-20T20:59:46.286Z,13.75
2024-01-20T21:02:13.049Z,13.30
2024-01-20T21:04:39.738Z,12.40
2024-01-20T21:07:07.881Z,12.30
2024-01-20T21:09:35.249Z,13.73
2024-01-20T21:12:02.441Z,12.00
2024-01-20T21:14:32.148Z,12.67
2024-01-20T21:16:58.786Z,11.95
2024-01-20T21:19:25.541Z,12.13
2024-01-20T21:21:52.377Z,12.45
2024-01-20T21:24:22.086Z,12.60
2024-01-20T21:26:48.747Z,11.67
2024-01-20T21:29:15.337Z,11.30
2024-01-20T21:31:43.372Z,12.15
2024-01-20T21:34:10.138Z,11.35
2024-01-20T21:36:37.233Z,11.40
2024-01-20T21:39:09.411Z,10.73
2024-01-20T21:41:36.824Z,10.90
2024-01-20T21:44:04.351Z,10.95
2024-01-20T21:46:31.107Z,10.93
2024-01-20T21:48:58.046Z,11.00
2024-01-20T21:51:24.807Z,10.13
2024-01-20T21:53:51.451Z,10.30
2024-01-20T21:56:18.049Z,10.57
2024-01-20T21:58:44.998Z,10.35
2024-01-20T22:01:11.777Z,10.13
2024-01-20T22:03:38.688Z,9.67
2024-01-20T22:06:05.801Z,9.10
2024-01-20T22:08:32.397Z,9.45
2024-01-20T22:10:59.087Z,9.20
2024-01-20T22:13:27.389Z,9.88
2024-01-20T22:15:54.191Z,9.57
2024-01-20T22:18:21.099Z,9.02
2024-01-20T22:20:47.824Z,9.57
2024-01-20T22:23:14.487Z,8.85
2024-01-20T22:25:41.196Z,8.57
2024-01-20T22:28:07.817Z,8.73
2024-01-20T22:30:34.473Z,8.57
2024-01-20T22:33:01.640Z,7.72
2024-01-20T22:35:30.839Z,8.35
2024-01-20T22:37:57.667Z,7.72
2024-01-20T22:40:24.727Z,8.97
2024-01-20T22:42:51.952Z,7.82
2024-01-20T22:45:18.664Z,7.03
2024-01-20T22:47:46.152Z,8.40
2024-01-20T22:50:13.232Z,7.60
2024-01-20T22:52:43.100Z,7.43
2024-01-20T22:55:09.918Z,7.35
2024-01-20T22:57:39.322Z,7.18
2024-01-20T23:00:13.817Z,6.60
2024-01-20T23:02:42.943Z,7.13
2024-01-20T23:05:10.150Z,7.37
2024-01-20T23:07:39.396Z,7.53
2024-01-20T23:10:06.438Z,6.60
2024-01-20T23:12:33.078Z,6.78
2024-01-20T23:14:59.709Z,5.90
2024-01-20T23:17:26.447Z,6.70
2024-01-20T23:19:53.064Z,6.22
2024-01-20T23:22:19.750Z,6.25
2024-01-20T23:24:46.996Z,6.22
2024-01-20T23:27:14.055Z,6.70
2024-01-20T23:29:41.232Z,6.43
2024-01-20T23:32:12.303Z,6.10
2024-01-20T23:34:40.998Z,6.38
2024-01-20T23:37:07.683Z,5.32
2024-01-20T23:39:34.322Z,5.28
2024-01-20T23:42:00.974Z,5.80
2024-01-20T23:44:27.573Z,5.88
2024-01-20T23:46:55.646Z,5.53
2024-01-20T23:49:22.430Z,5.70
2024-01-20T23:51:49.072Z,5.35
2024-01-20T23:54:15.789Z,4.70
2024-01-20T23:56:42.420Z,5.13
2024-01-20T23:59:09.258Z,5.07
